Time;durP1;ratioP1;P1;durP2;ratioP2;P2;SDS_P1;SDS_P2;PMS_P1;PMS_P2;Temp;Humidity;BMP_temperature;BMP_pressure;BME280_temperature;BME280_humidity;BME280_pressure;Samples;Min_cycle;Max_cycle;Signal;HPM_P1;HPM_P2
2022/04/24 00:01:20;;;;;;;17.07;13.70;;;;;;;12.81;79.18;96207.28;4108707;28;20753;-84
2022/04/24 00:03:25;;;;;;;16.60;13.50;;;;;;;12.82;79.13;96208.97;4114317;28;20701;-84
2022/04/24 00:05:29;;;;;;;16.57;13.83;;;;;;;12.80;79.82;96212.66;4129833;28;20635;-83
2022/04/24 00:07:32;;;;;;;15.30;12.93;;;;;;;12.76;79.34;96193.88;4114449;28;20646;-83
2022/04/24 00:09:37;;;;;;;16.63;13.20;;;;;;;12.81;78.92;96193.38;4113080;28;20626;-84
2022/04/24 00:11:40;;;;;;;17.30;14.70;;;;;;;12.75;78.25;96175.72;4114194;28;20668;-84
2022/04/24 00:13:44;;;;;;;16.03;12.70;;;;;;;12.70;79.80;96184.06;4114276;28;21022;-83
2022/04/24 00:15:47;;;;;;;15.90;13.50;;;;;;;12.66;79.78;96186.34;4127992;28;20631;-84
2022/04/24 00:17:50;;;;;;;15.40;12.63;;;;;;;12.65;78.86;96174.28;4112856;28;20629;-83
2022/04/24 00:19:55;;;;;;;17.13;13.80;;;;;;;12.65;78.65;96172.47;4129018;28;20644;-83
2022/04/24 00:21:58;;;;;;;15.30;12.87;;;;;;;12.60;79.73;96171.31;4111557;28;20672;-83
2022/04/24 00:24:02;;;;;;;16.23;14.07;;;;;;;12.60;80.10;96169.53;4111947;28;20672;-84
2022/04/24 00:26:05;;;;;;;16.30;12.60;;;;;;;12.60;79.69;96168.69;4112647;28;20639;-83
2022/04/24 00:28:09;;;;;;;15.10;12.63;;;;;;;12.59;80.32;96173.09;4113228;28;20688;-84
2022/04/24 00:30:13;;;;;;;17.63;13.27;;;;;;;12.61;79.00;96172.94;4126766;28;20627;-83
2022/04/24 00:32:16;;;;;;;15.27;12.77;;;;;;;12.59;80.55;96172.31;4114055;28;20636;-84
2022/04/24 00:34:19;;;;;;;16.07;13.20;;;;;;;12.56;79.19;96173.44;4128212;28;20666;-83
2022/04/24 00:36:24;;;;;;;16.00;13.10;;;;;;;12.58;78.95;96170.66;4112159;28;21224;-83
2022/04/24 00:38:27;;;;;;;15.60;13.23;;;;;;;12.58;80.44;96170.66;4128107;28;20651;-83
2022/04/24 00:40:30;;;;;;;15.73;13.20;;;;;;;12.58;78.54;96162.81;4111512;28;20624;-83
2022/04/24 00:42:34;;;;;;;16.40;13.77;;;;;;;12.59;79.01;96156.63;4128119;28;20766;-84
2022/04/24 00:44:37;;;;;;;19.70;13.23;;;;;;;12.58;80.89;96152.34;4111719;28;20626;-83
2022/04/24 00:47:12;;;;;;;15.00;13.40;;;;;;;12.58;80.29;96157.59;4120138;28;20694;-83
2022/04/24 00:49:15;;;;;;;18.70;13.30;;;;;;;12.59;80.84;96146.16;4126831;28;20607;-83
2022/04/24 00:51:18;;;;;;;14.60;12.53;;;;;;;12.60;80.83;96153.00;4126463;28;21216;-83
2022/04/24 00:53:23;;;;;;;15.57;12.90;;;;;;;12.63;80.06;96150.88;4128453;28;20671;-84
2022/04/24 00:55:26;;;;;;;15.83;12.80;;;;;;;12.63;80.37;96144.81;4112394;28;20640;-83
2022/04/24 00:57:30;;;;;;;15.60;12.63;;;;;;;12.62;80.45;96148.44;4111740;28;20708;-83
2022/04/24 00:59:33;;;;;;;15.40;12.87;;;;;;;12.62;79.90;96140.59;4113555;28;20640;-83
2022/04/24 01:01:37;;;;;;;16.00;13.03;;;;;;;12.58;80.51;96141.91;4111874;28;20705;-83
2022/04/24 01:03:41;;;;;;;14.53;12.33;;;;;;;12.58;78.45;96140.09;4110113;28;21199;-83
2022/04/24 01:05:45;;;;;;;15.97;13.00;;;;;;;12.60;78.13;96132.91;4115036;28;20694;-83
2022/04/24 01:07:48;;;;;;;15.73;13.03;;;;;;;12.61;80.02;96134.53;4125707;28;21336;-83
2022/04/24 01:09:52;;;;;;;14.37;11.90;;;;;;;12.60;78.92;96138.16;4122850;28;20618;-83
2022/04/24 01:11:57;;;;;;;15.90;12.80;;;;;;;12.61;78.64;96131.91;4124248;28;20612;-83
2022/04/24 01:14:01;;;;;;;15.77;12.80;;;;;;;12.63;79.25;96129.13;4128489;28;20616;-83
2022/04/24 01:16:04;;;;;;;14.53;12.47;;;;;;;12.66;80.13;96128.81;4112693;28;20990;-83
2022/04/24 01:18:09;;;;;;;14.47;12.37;;;;;;;12.68;79.10;96121.63;4113153;28;21256;-83
2022/04/24 01:20:14;;;;;;;15.90;12.70;;;;;;;12.69;79.83;96118.84;4125293;28;20625;-83
2022/04/24 01:22:19;;;;;;;17.00;13.57;;;;;;;12.73;79.95;96120.97;4113292;28;20708;-83
2022/04/24 01:24:24;;;;;;;14.90;12.70;;;;;;;12.76;79.12;96112.78;4113965;28;20630;-83
2022/04/24 01:26:27;;;;;;;15.27;13.20;;;;;;;12.73;79.00;96113.13;4110883;28;20640;-83
2022/04/24 01:28:30;;;;;;;21.17;13.23;;;;;;;12.63;79.99;96108.22;4112488;28;20628;-84
2022/04/24 01:30:33;;;;;;;15.40;12.60;;;;;;;12.67;80.10;96104.28;4128420;28;20617;-83
2022/04/24 01:32:38;;;;;;;16.43;13.17;;;;;;;12.68;78.89;96106.75;4110592;28;20668;-83
2022/04/24 01:34:41;;;;;;;15.80;13.20;;;;;;;12.70;78.57;96121.31;4111621;28;20617;-83
2022/04/24 01:36:45;;;;;;;14.63;12.80;;;;;;;12.71;79.83;96124.72;4113100;28;20620;-83
2022/04/24 01:38:50;;;;;;;16.27;13.43;;;;;;;12.72;80.10;96127.16;4126660;28;20635;-83
2022/04/24 01:40:53;;;;;;;15.07;12.70;;;;;;;12.73;80.30;96123.59;4124425;28;20727;-84
2022/04/24 01:42:56;;;;;;;13.97;12.10;;;;;;;12.75;79.68;96121.59;4110247;28;20789;-84
2022/04/24 01:44:59;;;;;;;15.53;13.40;;;;;;;12.75;78.26;96119.00;4110555;28;20652;-84
2022/04/24 01:47:03;;;;;;;16.67;14.00;;;;;;;12.78;78.21;96123.91;4110462;28;20631;-83
2022/04/24 01:49:06;;;;;;;14.87;12.30;;;;;;;12.79;79.92;96129.94;4125126;28;20629;-84
2022/04/24 01:51:11;;;;;;;15.03;12.50;;;;;;;12.80;78.88;96135.00;4111564;28;21208;-84
2022/04/24 01:53:14;;;;;;;15.30;12.90;;;;;;;12.73;78.40;96126.19;4110983;28;21281;-83
2022/04/24 01:55:19;;;;;;;16.03;13.83;;;;;;;12.74;79.42;96125.19;4102902;28;20633;-83
2022/04/24 01:57:27;;;;;;;15.33;13.10;;;;;;;12.75;79.21;96129.47;4111200;28;20681;-83
2022/04/24 01:59:30;;;;;;;15.20;12.23;;;;;;;12.75;78.96;96139.91;4110590;28;20731;-84
2022/04/24 02:01:34;;;;;;;15.40;13.30;;;;;;;12.76;79.53;96131.09;4112076;28;20626;-83
2022/04/24 02:03:38;;;;;;;16.20;13.50;;;;;;;12.76;78.44;96130.25;4110702;28;20678;-83
2022/04/24 02:05:41;;;;;;;15.73;13.03;;;;;;;12.78;78.66;96141.41;4127547;28;21191;-83
2022/04/24 02:07:45;;;;;;;14.30;12.80;;;;;;;12.76;79.01;96152.03;4127925;28;20635;-83
2022/04/24 02:09:48;;;;;;;15.30;12.43;;;;;;;12.80;79.76;96158.53;4110812;28;20622;-83
2022/04/24 02:11:52;;;;;;;18.00;14.23;;;;;;;12.77;78.45;96166.72;4110582;28;20630;-83
2022/04/24 02:13:56;;;;;;;15.47;13.40;;;;;;;12.79;79.42;96167.41;4114373;28;21176;-83
2022/04/24 02:15:59;;;;;;;16.90;13.37;;;;;;;12.81;79.66;96170.66;4124749;28;20643;-83
2022/04/24 02:18:04;;;;;;;15.53;13.00;;;;;;;12.80;79.69;96179.47;4109985;28;20804;-83
2022/04/24 02:20:08;;;;;;;16.30;13.17;;;;;;;12.76;78.12;96180.81;4108829;28;20643;-83
2022/04/24 02:22:12;;;;;;;15.10;12.73;;;;;;;12.77;78.29;96195.50;4112559;28;20644;-83
2022/04/24 02:24:15;;;;;;;14.90;13.00;;;;;;;12.80;79.27;96200.41;4112521;28;20656;-83
2022/04/24 02:26:18;;;;;;;17.30;13.30;;;;;;;12.80;80.06;96208.25;4106614;28;20703;-83
2022/04/24 02:28:26;;;;;;;14.83;12.50;;;;;;;12.83;79.61;96222.84;4112359;28;20627;-83
2022/04/24 02:30:30;;;;;;;15.63;13.00;;;;;;;12.83;78.43;96225.47;4112593;28;20992;-83
2022/04/24 02:32:34;;;;;;;15.93;13.43;;;;;;;12.80;78.56;96226.56;4128258;28;20624;-83
2022/04/24 02:34:37;;;;;;;17.10;13.20;;;;;;;12.80;80.11;96223.94;4112067;28;20658;-83
2022/04/24 02:36:45;;;;;;;14.77;13.10;;;;;;;12.80;79.24;96229.19;4110235;28;20672;-83
2022/04/24 02:38:49;;;;;;;18.23;13.80;;;;;;;12.82;78.83;96218.53;4112401;28;20709;-83
2022/04/24 02:40:52;;;;;;;15.47;12.93;;;;;;;12.83;78.92;96223.66;4112425;28;20641;-83
2022/04/24 02:42:56;;;;;;;16.93;14.50;;;;;;;12.81;79.50;96230.81;4109888;28;20646;-83
2022/04/24 02:45:00;;;;;;;14.80;12.97;;;;;;;12.81;79.71;96232.63;4113637;28;20613;-83
2022/04/24 02:47:04;;;;;;;17.77;14.17;;;;;;;12.75;79.99;96228.84;4110678;28;20650;-83
2022/04/24 02:49:08;;;;;;;17.37;14.10;;;;;;;12.71;79.11;96232.78;4124262;28;20652;-83
2022/04/24 02:51:11;;;;;;;15.37;13.57;;;;;;;12.69;81.02;96224.28;4109751;28;21064;-83
2022/04/24 02:53:15;;;;;;;18.50;14.30;;;;;;;12.69;80.46;96226.91;4115657;28;21190;-83
2022/04/24 02:55:19;;;;;;;16.27;13.47;;;;;;;12.69;81.60;96224.28;4131474;28;20635;-83
2022/04/24 02:57:22;;;;;;;17.43;14.50;;;;;;;12.68;82.15;96217.41;4115653;28;20670;-83
2022/04/24 02:59:25;;;;;;;19.07;14.10;;;;;;;12.65;81.74;96227.38;4131252;28;20751;-82
2022/04/24 03:01:30;;;;;;;20.47;15.07;;;;;;;12.64;82.19;96224.94;4103469;28;20618;-81
2022/04/24 03:03:33;;;;;;;17.33;14.57;;;;;;;12.62;82.42;96224.28;4126756;28;20644;-81
2022/04/24 03:05:37;;;;;;;19.10;14.97;;;;;;;12.61;82.62;96225.25;4118490;28;21032;-81
2022/04/24 03:07:40;;;;;;;17.67;15.47;;;;;;;12.60;83.52;96232.28;4131186;28;20691;-81
2022/04/24 03:09:43;;;;;;;17.60;14.53;;;;;;;12.59;84.59;96237.69;4114496;28;20604;-82
2022/04/24 03:11:46;;;;;;;17.00;15.00;;;;;;;12.55;87.08;96250.25;4115658;28;20641;-81
2022/04/24 03:13:50;;;;;;;20.30;16.30;;;;;;;12.50;85.49;96242.06;4132677;28;20619;-81
2022/04/24 03:15:53;;;;;;;20.27;16.50;;;;;;;12.47;87.00;96238.97;4115613;28;20620;-81
2022/04/24 03:17:58;;;;;;;17.50;14.67;;;;;;;12.45;87.71;96246.97;4132123;28;20670;-82
2022/04/24 03:20:01;;;;;;;19.80;15.80;;;;;;;12.41;86.95;96240.44;4115692;28;20903;-83
2022/04/24 03:22:05;;;;;;;18.60;15.27;;;;;;;12.43;86.12;96232.41;4129093;28;20751;-83
2022/04/24 03:24:08;;;;;;;19.00;15.33;;;;;;;12.37;85.85;96239.13;4115631;28;20661;-83
2022/04/24 03:26:13;;;;;;;20.93;14.93;;;;;;;12.28;87.40;96237.47;4127916;28;20669;-83
2022/04/24 03:28:17;;;;;;;19.67;16.00;;;;;;;12.20;87.36;96243.66;4127624;28;20678;-83
2022/04/24 03:30:20;;;;;;;21.30;16.67;;;;;;;12.11;89.04;96242.81;4113386;28;21239;-83
2022/04/24 03:32:23;;;;;;;19.10;15.00;;;;;;;12.06;88.30;96234.63;4127748;28;20631;-83
2022/04/24 03:34:28;;;;;;;20.30;15.23;;;;;;;12.03;89.00;96234.97;4115084;28;20634;-83
2022/04/24 03:36:31;;;;;;;19.47;15.33;;;;;;;11.99;90.06;96225.78;4112848;28;20644;-83
2022/04/24 03:38:35;;;;;;;21.37;16.33;;;;;;;11.96;88.36;96233.94;4114461;28;20647;-83
2022/04/24 03:40:39;;;;;;;17.97;15.10;;;;;;;11.96;89.54;96233.94;4114972;28;20718;-84
2022/04/24 03:42:42;;;;;;;24.40;17.03;;;;;;;11.91;88.83;96232.81;4129687;28;20677;-83
2022/04/24 03:44:45;;;;;;;19.27;14.83;;;;;;;11.93;89.54;96231.66;4127625;28;20665;-83
2022/04/24 03:46:49;;;;;;;19.57;16.53;;;;;;;11.94;89.49;96246.34;4114730;28;20682;-83
2022/04/24 03:48:52;;;;;;;18.43;15.10;;;;;;;11.98;88.24;96236.41;4128771;28;20619;-83
2022/04/24 03:51:02;;;;;;;18.97;15.83;;;;;;;12.01;90.75;96243.91;4113608;28;20639;-83
2022/04/24 03:53:06;;;;;;;20.33;15.13;;;;;;;12.03;88.74;96242.00;4113410;28;21050;-83
2022/04/24 03:55:10;;;;;;;20.80;16.07;;;;;;;12.04;91.14;96236.59;4114734;28;20683;-83
2022/04/24 03:57:13;;;;;;;19.57;15.97;;;;;;;12.05;90.73;96233.00;4114635;28;21038;-83
2022/04/24 03:59:16;;;;;;;19.47;15.87;;;;;;;12.03;89.21;96234.97;4114630;28;20628;-83
2022/04/24 04:01:20;;;;;;;19.57;15.83;;;;;;;12.04;89.09;96233.16;4117057;28;20720;-83
2022/04/24 04:03:23;;;;;;;19.10;16.10;;;;;;;12.05;90.87;96235.59;4129062;28;20619;-83
2022/04/24 04:05:26;;;;;;;24.93;16.87;;;;;;;12.05;89.63;96233.00;4129133;28;20655;-83
2022/04/24 04:07:31;;;;;;;17.67;15.00;;;;;;;12.02;90.33;96225.47;4115333;28;21195;-83
2022/04/24 04:09:34;;;;;;;19.23;16.30;;;;;;;12.00;90.08;96231.84;4129036;28;21066;-83
2022/04/24 04:11:38;;;;;;;20.13;16.53;;;;;;;12.00;91.24;96232.66;4096130;29;20969;-83
2022/04/24 04:13:41;;;;;;;21.27;16.50;;;;;;;12.01;92.04;96234.31;4114774;28;20624;-83
2022/04/24 04:15:44;;;;;;;18.10;15.40;;;;;;;12.04;90.11;96239.22;4126866;28;21030;-83
2022/04/24 04:17:47;;;;;;;21.37;16.80;;;;;;;12.04;91.10;96236.59;4128296;28;20656;-83
2022/04/24 04:19:51;;;;;;;18.83;16.20;;;;;;;12.05;91.38;96232.19;4113319;28;21066;-83
2022/04/24 04:21:54;;;;;;;22.13;16.33;;;;;;;12.07;90.17;96235.44;4112766;28;20630;-83
2022/04/24 04:23:58;;;;;;;18.93;15.50;;;;;;;12.06;91.31;96239.06;4114131;28;20691;-83
2022/04/24 04:26:03;;;;;;;17.53;14.60;;;;;;;12.03;89.14;96234.16;4129981;28;20650;-83
2022/04/24 04:28:06;;;;;;;20.80;15.80;;;;;;;11.96;89.26;96230.53;4113122;28;20656;-83
2022/04/24 04:30:10;;;;;;;19.40;15.57;;;;;;;11.92;89.50;96229.19;4115673;28;20980;-83
2022/04/24 04:32:13;;;;;;;20.13;15.90;;;;;;;11.88;89.74;96231.31;4114173;28;20651;-83
2022/04/24 04:34:17;;;;;;;18.97;15.83;;;;;;;11.83;88.86;96230.97;4127517;28;20654;-83
2022/04/24 04:36:20;;;;;;;18.27;15.30;;;;;;;11.83;90.92;96230.97;4113452;28;20640;-83
2022/04/24 04:38:24;;;;;;;19.73;15.60;;;;;;;11.84;89.67;96234.41;4113777;28;20617;-83
2022/04/24 04:40:30;;;;;;;21.30;15.50;;;;;;;11.85;91.35;96238.66;4114901;28;20634;-83
2022/04/24 04:42:33;;;;;;;18.83;15.20;;;;;;;11.83;90.66;96244.03;4114152;28;20628;-83
2022/04/24 04:44:37;;;;;;;19.57;15.00;;;;;;;11.84;91.30;96250.06;4114728;28;20652;-83
2022/04/24 04:46:40;;;;;;;20.30;16.87;;;;;;;11.83;90.77;96253.66;4114246;28;20634;-83
2022/04/24 04:48:44;;;;;;;20.93;16.90;;;;;;;11.82;89.86;96249.41;4128769;28;20638;-83
2022/04/24 04:50:47;;;;;;;17.57;15.43;;;;;;;11.83;90.51;96264.94;4125586;28;21013;-83
2022/04/24 04:52:50;;;;;;;19.20;16.00;;;;;;;11.85;92.10;96262.16;4113607;28;20999;-83
2022/04/24 04:54:53;;;;;;;20.97;16.67;;;;;;;11.88;90.23;96275.72;4128493;28;20643;-83
2022/04/24 04:56:58;;;;;;;18.67;15.87;;;;;;;11.91;92.40;96279.81;4113469;28;20674;-83
2022/04/24 04:59:01;;;;;;;19.70;15.77;;;;;;;11.91;90.85;96288.47;4113930;28;20695;-83
2022/04/24 05:01:04;;;;;;;19.23;15.63;;;;;;;11.92;93.17;96290.13;4113464;28;20635;-83
2022/04/24 05:03:08;;;;;;;22.07;17.23;;;;;;;11.92;92.92;96297.94;4124604;28;20692;-83
2022/04/24 05:05:12;;;;;;;21.27;17.03;;;;;;;11.93;91.49;96296.97;4117201;28;20693;-83
2022/04/24 05:07:15;;;;;;;22.23;17.07;;;;;;;11.95;91.94;96304.63;4112340;28;20629;-83
2022/04/24 05:09:18;;;;;;;21.83;15.97;;;;;;;11.93;92.44;96310.03;4112796;28;21199;-83
2022/04/24 05:11:21;;;;;;;21.60;17.63;;;;;;;11.94;93.60;96313.47;4111346;28;21269;-83
2022/04/24 05:13:26;;;;;;;24.80;18.10;;;;;;;11.94;92.30;96323.91;4112855;28;20641;-83
2022/04/24 05:15:29;;;;;;;22.67;18.00;;;;;;;11.91;92.67;96337.28;4112892;28;20658;-83
2022/04/24 05:17:34;;;;;;;24.00;18.40;;;;;;;11.80;93.30;96332.31;4113144;28;20640;-84
2022/04/24 05:19:37;;;;;;;19.60;13.73;;;;;;;11.23;95.23;96366.03;4113507;28;21205;-83
2022/04/24 05:21:40;;;;;;;15.43;10.60;;;;;;;11.02;97.18;96368.13;4112704;28;20694;-82
2022/04/24 05:23:46;;;;;;;15.10;10.70;;;;;;;10.93;96.29;96376.00;4129052;28;20631;-83
2022/04/24 05:25:49;;;;;;;15.23;11.90;;;;;;;10.86;96.29;96375.78;4111459;28;20642;-82
2022/04/24 05:27:52;;;;;;;13.20;8.50;;;;;;;10.80;95.95;96374.75;4112357;28;21069;-82
2022/04/24 05:29:58;;;;;;;9.13;5.83;;;;;;;10.52;96.51;96381.75;4126113;28;20655;-82
2022/04/24 05:32:01;;;;;;;7.97;5.53;;;;;;;10.47;96.74;96384.00;4113825;28;20625;-83
2022/04/24 05:34:05;;;;;;;8.13;5.10;;;;;;;10.28;98.31;96385.88;4125957;28;20829;-83
2022/04/24 05:36:08;;;;;;;8.63;4.47;;;;;;;10.28;98.28;96390.28;4110920;28;20642;-82
2022/04/24 05:38:12;;;;;;;5.90;4.30;;;;;;;10.20;98.21;96393.59;4125248;28;20738;-82
2022/04/24 05:40:15;;;;;;;6.07;4.30;;;;;;;10.21;98.25;96397.84;4105377;28;20687;-82
2022/04/24 05:42:18;;;;;;;5.60;3.87;;;;;;;10.13;98.67;96395.16;4126855;28;21453;-83
2022/04/24 05:44:22;;;;;;;4.90;3.10;;;;;;;10.13;98.13;96384.75;4124859;28;20633;-83
2022/04/24 05:46:26;;;;;;;10.20;3.77;;;;;;;10.12;98.82;96403.94;4114019;28;20640;-82
2022/04/24 05:48:30;;;;;;;4.97;3.50;;;;;;;10.09;98.25;96392.97;4114192;28;20701;-82
2022/04/24 05:50:33;;;;;;;3.10;1.90;;;;;;;10.03;98.34;96394.38;4114284;28;20633;-83
2022/04/24 05:52:36;;;;;;;3.83;2.30;;;;;;;10.05;98.54;96405.44;4108739;28;20669;-82
2022/04/24 05:54:42;;;;;;;2.80;1.87;;;;;;;10.02;98.63;96403.13;4113491;28;21283;-82
2022/04/24 05:56:46;;;;;;;2.10;1.60;;;;;;;10.04;98.20;96410.81;4111471;28;20982;-82
2022/04/24 05:58:49;;;;;;;2.20;1.20;;;;;;;10.00;97.65;96402.47;4126690;28;20651;-82
2022/04/24 06:00:53;;;;;;;2.30;1.10;;;;;;;9.99;97.37;96406.03;4110966;28;20990;-82
2022/04/24 06:02:57;;;;;;;2.23;0.90;;;;;;;9.94;97.83;96405.63;4111302;28;20642;-83
2022/04/24 06:05:01;;;;;;;2.37;1.00;;;;;;;9.91;98.23;96405.06;4115365;28;20699;-82
2022/04/24 06:07:05;;;;;;;1.47;0.50;;;;;;;9.80;98.06;96396.59;4127629;28;21257;-82
2022/04/24 06:09:08;;;;;;;1.30;0.50;;;;;;;9.77;98.17;96408.09;4128426;28;20666;-82
2022/04/24 06:11:11;;;;;;;2.20;0.77;;;;;;;9.77;98.63;96408.09;4113931;28;21231;-82
2022/04/24 06:13:15;;;;;;;1.17;0.50;;;;;;;9.83;98.33;96409.34;4113539;28;20672;-82
2022/04/24 06:15:21;;;;;;;1.48;0.70;;;;;;;9.88;98.26;96405.34;4109547;28;20622;-82
2022/04/24 06:17:25;;;;;;;1.43;0.50;;;;;;;9.87;98.41;96406.31;4109624;28;20209;-82
2022/04/24 06:19:30;;;;;;;1.23;0.50;;;;;;;9.93;98.22;96398.78;4112736;28;21286;-82
2022/04/24 06:21:34;;;;;;;1.27;0.50;;;;;;;9.93;98.14;96401.38;4126923;28;20738;-82
2022/04/24 06:23:44;;;;;;;1.20;0.50;;;;;;;9.95;97.98;96390.81;4109606;28;20608;-82
2022/04/24 06:25:48;;;;;;;0.80;0.40;;;;;;;9.90;97.64;96393.81;4096667;29;21136;-82
2022/04/24 06:27:52;;;;;;;2.93;0.40;;;;;;;9.90;97.24;96401.63;4111446;28;20660;-82
2022/04/24 06:29:56;;;;;;;3.27;0.60;;;;;;;9.91;97.24;96392.88;4112769;28;20649;-82
2022/04/24 06:32:00;;;;;;;0.90;0.40;;;;;;;9.92;97.59;96389.31;4128554;28;20674;-82
2022/04/24 06:34:04;;;;;;;0.97;0.30;;;;;;;9.94;97.55;96390.00;4110502;28;20689;-82
2022/04/24 06:36:08;;;;;;;1.53;0.50;;;;;;;9.93;97.93;96385.75;4110440;28;21065;-82
2022/04/24 06:38:12;;;;;;;1.23;0.50;;;;;;;9.92;96.63;96381.50;4100043;28;20632;-82
2022/04/24 06:40:16;;;;;;;1.40;0.30;;;;;;;9.90;97.57;96385.19;4122709;28;20640;-83
2022/04/24 06:42:20;;;;;;;1.30;0.40;;;;;;;9.89;97.10;96381.78;4109891;28;20613;-82
2022/04/24 06:44:25;;;;;;;0.80;0.40;;;;;;;9.84;96.98;96383.97;4112522;28;20751;-82
2022/04/24 06:46:28;;;;;;;1.50;0.50;;;;;;;9.85;97.13;96388.22;4128306;28;20318;-82
2022/04/24 06:48:31;;;;;;;2.03;0.40;;;;;;;9.89;97.08;96387.00;4113003;28;20624;-82
2022/04/24 06:50:39;;;;;;;2.13;0.50;;;;;;;9.87;97.35;96380.28;4110984;28;20622;-82
2022/04/24 06:52:44;;;;;;;1.30;0.50;;;;;;;9.77;97.61;96382.06;4125091;28;20632;-82
2022/04/24 06:54:47;;;;;;;0.90;0.50;;;;;;;9.80;97.62;96381.78;4113544;28;20697;-82
2022/04/24 06:56:50;;;;;;;1.37;0.50;;;;;;;9.78;97.29;96380.31;4128735;28;20640;-82
2022/04/24 06:58:54;;;;;;;0.80;0.40;;;;;;;9.68;98.27;96375.16;4108970;28;20686;-82
2022/04/24 07:00:57;;;;;;;1.53;0.70;;;;;;;9.58;98.82;96381.34;4126909;28;20629;-82
2022/04/24 07:03:10;;;;;;;0.90;0.40;;;;;;;9.52;99.99;96381.88;4110425;28;20623;-82
2022/04/24 07:05:14;;;;;;;1.25;0.52;;;;;;;9.53;100.00;96386.97;4110455;28;20655;-82
2022/04/24 07:07:17;;;;;;;0.80;0.40;;;;;;;9.58;99.68;96383.94;4111974;28;20234;-82
2022/04/24 07:09:22;;;;;;;1.73;0.60;;;;;;;9.61;99.72;96386.25;4125344;28;20631;-82
2022/04/24 07:11:25;;;;;;;1.43;0.50;;;;;;;9.57;100.00;96387.50;4123585;28;20755;-82
2022/04/24 07:13:29;;;;;;;1.00;0.50;;;;;;;9.62;99.91;96398.28;4112695;28;20650;-83
2022/04/24 07:15:34;;;;;;;0.93;0.40;;;;;;;9.69;99.99;96394.16;4109895;28;20632;-82
2022/04/24 07:17:38;;;;;;;1.03;0.47;;;;;;;9.78;99.66;96398.53;4113228;28;20644;-82
2022/04/24 07:19:41;;;;;;;2.33;0.60;;;;;;;9.82;99.95;96392.91;4122624;28;21197;-82
2022/04/24 07:21:44;;;;;;;0.90;0.40;;;;;;;9.87;98.81;96391.50;4112398;28;20732;-82
2022/04/24 07:23:47;;;;;;;0.90;0.40;;;;;;;9.82;98.93;96392.91;4111400;28;21071;-82
2022/04/24 07:25:52;;;;;;;1.00;0.60;;;;;;;9.84;99.43;96404.78;4123985;28;20652;-83
2022/04/24 07:27:56;;;;;;;1.00;0.50;;;;;;;9.85;99.77;96403.03;4110430;28;21213;-82
2022/04/24 07:29:59;;;;;;;1.20;0.47;;;;;;;9.86;98.97;96402.91;4112056;28;20635;-82
2022/04/24 07:32:02;;;;;;;1.27;0.60;;;;;;;9.85;99.17;96411.66;4112125;28;20661;-82
2022/04/24 07:34:05;;;;;;;0.90;0.50;;;;;;;9.88;99.14;96400.97;4108773;28;20611;-82
2022/04/24 07:36:09;;;;;;;0.80;0.33;;;;;;;9.90;98.90;96406.03;4127554;28;20624;-82
2022/04/24 07:38:12;;;;;;;1.00;0.50;;;;;;;9.92;98.24;96407.53;4127649;28;20636;-82
2022/04/24 07:40:17;;;;;;;2.63;0.50;;;;;;;9.86;98.49;96417.69;4130160;28;20638;-82
2022/04/24 07:42:22;;;;;;;1.30;0.50;;;;;;;9.83;98.64;96412.75;4124404;28;20644;-82
2022/04/24 07:44:25;;;;;;;0.77;0.30;;;;;;;9.73;98.54;96418.97;4112957;28;20618;-82
2022/04/24 07:46:28;;;;;;;0.97;0.50;;;;;;;9.64;99.18;96418.03;4125857;28;20671;-82
2022/04/24 07:48:31;;;;;;;1.57;0.40;;;;;;;9.58;99.67;96423.78;4128944;28;20636;-82
2022/04/24 07:50:36;;;;;;;1.10;0.60;;;;;;;9.57;100.00;96423.91;4114124;28;20672;-82
2022/04/24 07:52:39;;;;;;;0.90;0.60;;;;;;;9.54;100.00;96421.59;4113497;28;20635;-82
2022/04/24 07:54:42;;;;;;;1.10;0.50;;;;;;;9.54;100.00;96432.81;4127812;28;20632;-82
2022/04/24 07:56:46;;;;;;;1.17;0.40;;;;;;;9.51;100.00;96432.28;4113738;28;20629;-82
2022/04/24 07:58:51;;;;;;;0.80;0.40;;;;;;;9.48;100.00;96437.75;4114683;28;20624;-82
2022/04/24 08:00:55;;;;;;;1.20;0.50;;;;;;;9.50;100.00;96441.03;4111323;28;21002;-82
2022/04/24 08:03:01;;;;;;;0.80;0.40;;;;;;;9.53;100.00;96438.16;4112114;28;20629;-82
2022/04/24 08:05:06;;;;;;;1.40;0.50;;;;;;;9.51;100.00;96442.69;4130276;28;21051;-82
2022/04/24 08:07:09;;;;;;;1.00;0.40;;;;;;;9.53;100.00;96440.75;4112798;28;21073;-82
2022/04/24 08:09:13;;;;;;;1.10;0.50;;;;;;;9.56;100.00;96441.31;4114706;28;20331;-82
2022/04/24 08:11:16;;;;;;;1.58;0.77;;;;;;;9.62;100.00;96445.97;4107880;28;20632;-82
2022/04/24 08:13:23;;;;;;;0.90;0.40;;;;;;;9.70;100.00;96445.28;4114556;28;20217;-82
2022/04/24 08:15:28;;;;;;;1.70;0.70;;;;;;;9.74;100.00;96450.06;4113763;28;20698;-82
2022/04/24 08:17:31;;;;;;;1.13;0.73;;;;;;;9.82;100.00;96457.16;4114273;28;20683;-82
2022/04/24 08:19:35;;;;;;;1.17;0.53;;;;;;;9.84;100.00;96464.69;4130454;28;20722;-82
2022/04/24 08:21:38;;;;;;;1.10;0.60;;;;;;;9.85;99.61;96466.34;4112088;28;20638;-82
2022/04/24 08:23:41;;;;;;;0.83;0.40;;;;;;;9.92;99.64;96463.97;4112361;28;20624;-82
2022/04/24 08:25:45;;;;;;;1.30;0.50;;;;;;;9.94;99.34;96472.53;4113521;28;20655;-82
2022/04/24 08:27:49;;;;;;;1.20;0.57;;;;;;;9.98;99.07;96471.25;4122554;28;20656;-82
2022/04/24 08:29:52;;;;;;;0.90;0.50;;;;;;;10.01;99.35;96466.63;4128056;28;20667;-82
2022/04/24 08:31:57;;;;;;;1.20;0.60;;;;;;;10.05;99.12;96473.16;4113285;28;20630;-82
2022/04/24 08:34:00;;;;;;;2.17;0.40;;;;;;;10.09;99.13;96469.31;4111872;28;20637;-82
2022/04/24 08:36:05;;;;;;;1.00;0.60;;;;;;;10.14;98.91;96482.72;4129095;28;20629;-82
2022/04/24 08:38:09;;;;;;;1.00;0.50;;;;;;;10.13;98.79;96483.72;4093041;29;21052;-82
2022/04/24 08:40:14;;;;;;;1.57;0.70;;;;;;;10.08;99.66;96482.50;4110369;28;21265;-82
2022/04/24 08:42:18;;;;;;;1.67;0.60;;;;;;;10.05;99.32;96480.16;4114677;28;20621;-82
2022/04/24 08:44:22;;;;;;;1.10;0.50;;;;;;;10.06;99.16;96477.41;4114168;28;20656;-82
2022/04/24 08:46:26;;;;;;;1.10;0.60;;;;;;;10.07;99.55;96483.44;4125655;28;20673;-82
2022/04/24 08:48:31;;;;;;;1.20;0.50;;;;;;;10.02;99.56;96481.25;4113780;28;20700;-82
2022/04/24 08:50:34;;;;;;;1.02;0.50;;;;;;;9.92;100.00;96475.22;4110194;28;20675;-82
2022/04/24 08:52:38;;;;;;;1.00;0.50;;;;;;;9.89;100.00;96467.69;4126114;28;20243;-82
2022/04/24 08:54:42;;;;;;;0.97;0.50;;;;;;;9.87;100.00;96469.59;4126152;28;20628;-82
2022/04/24 08:56:45;;;;;;;1.73;0.60;;;;;;;9.84;100.00;96476.06;4111350;28;20644;-82
2022/04/24 08:58:49;;;;;;;1.20;0.70;;;;;;;9.94;100.00;96472.53;4113984;28;20643;-82
2022/04/24 09:00:58;;;;;;;1.30;0.63;;;;;;;10.03;100.00;96474.28;4126589;28;20701;-82
2022/04/24 09:03:02;;;;;;;2.17;0.80;;;;;;;10.04;100.00;96474.16;4114990;28;20621;-82
2022/04/24 09:05:07;;;;;;;1.00;0.60;;;;;;;9.99;100.00;96478.13;4115310;28;20632;-82
2022/04/24 09:07:17;;;;;;;1.30;0.63;;;;;;;9.95;100.00;96472.38;4128447;28;20664;-82
2022/04/24 09:09:20;;;;;;;1.02;0.60;;;;;;;9.96;100.00;96476.59;4114857;28;20651;-82
2022/04/24 09:11:24;;;;;;;1.10;0.70;;;;;;;9.89;100.00;96472.06;4112531;28;20554;-82
2022/04/24 09:13:29;;;;;;;2.42;0.80;;;;;;;9.92;100.00;96483.06;4111675;28;20205;-82
2022/04/24 09:15:34;;;;;;;1.83;1.00;;;;;;;9.91;100.00;96478.78;4111443;28;20217;-82
2022/04/24 09:17:38;;;;;;;1.60;0.70;;;;;;;9.92;100.00;96483.06;4110675;28;20643;-82
2022/04/24 09:19:42;;;;;;;2.07;0.60;;;;;;;9.92;100.00;96490.00;4113530;28;20637;-82
2022/04/24 09:21:46;;;;;;;1.93;0.83;;;;;;;9.91;100.00;96486.59;4102593;28;20644;-81
2022/04/24 09:23:50;;;;;;;1.47;0.60;;;;;;;9.93;100.00;96489.06;4113084;28;20627;-80
2022/04/24 09:25:59;;;;;;;1.27;0.77;;;;;;;9.91;100.00;96489.22;4113668;28;20746;-80
2022/04/24 09:28:03;;;;;;;1.57;0.93;;;;;;;9.96;100.00;96481.81;4114812;28;20233;-81
2022/04/24 09:30:10;;;;;;;1.63;0.70;;;;;;;9.95;100.00;96489.78;4113477;28;20667;-80
2022/04/24 09:32:14;;;;;;;1.13;0.52;;;;;;;9.97;100.00;96490.47;4113548;28;21285;-81
2022/04/24 09:34:18;;;;;;;2.00;0.80;;;;;;;9.90;100.00;96484.94;4112242;28;20216;-82
2022/04/24 09:36:25;;;;;;;1.10;0.70;;;;;;;9.89;100.00;96491.13;4110977;28;21219;-82
2022/04/24 09:38:30;;;;;;;1.53;0.90;;;;;;;9.92;100.00;96485.66;4091179;28;20629;-82